createdAt,value
2015-01-02T13:49:27.530Z,162
2015-01-02T13:58:28.194Z,129
2015-01-02T14:04:28.677Z,141
2015-01-02T14:12:29.288Z,123
2015-01-02T14:19:29.837Z,121
2015-01-02T14:25:30.334Z,74
2015-01-02T14:32:30.881Z,72
2015-01-02T14:39:31.430Z,92
2015-01-02T14:44:31.878Z,45
2015-01-02T14:50:32.376Z,40
2015-01-02T14:55:32.826Z,32
2015-01-02T15:02:33.372Z,22
2015-01-02T15:10:33.969Z,12
2015-01-02T15:19:34.631Z,18
2015-01-02T15:27:35.228Z,10
2015-01-02T15:35:35.824Z,2
2015-01-02T15:42:36.387Z,0
2015-01-02T15:49:36.934Z,6
2015-01-02T15:57:37.531Z,6
2015-01-02T16:03:38.030Z,6
2015-01-02T16:11:38.626Z,1
2015-01-02T16:19:39.238Z,1
2015-01-02T16:26:39.786Z,1
2015-01-02T16:34:40.382Z,1
2015-01-02T16:41:40.929Z,1
2015-01-02T16:48:41.477Z,1
2015-01-02T16:54:41.976Z,1
2015-01-02T17:01:42.523Z,0
2015-01-02T17:07:43.021Z,0
2015-01-02T17:13:43.520Z,0
2015-01-02T17:20:44.066Z,0
2015-01-02T17:28:44.662Z,0
2015-01-02T17:35:45.211Z,0
2015-01-02T17:41:45.709Z,0
2015-01-02T17:46:46.157Z,0
2015-01-02T17:52:46.656Z,0
2015-01-02T18:00:47.253Z,0
2015-01-02T18:08:47.849Z,2
2015-01-02T18:14:48.346Z,0
2015-01-02T18:20:48.861Z,0
2015-01-02T18:27:49.409Z,0
2015-01-02T18:33:49.890Z,0
